Time;durP1;ratioP1;P1;durP2;ratioP2;P2;SDS_P1;SDS_P2;PMS_P1;PMS_P2;Temp;Humidity;BMP_temperature;BMP_pressure;BME280_temperature;BME280_humidity;BME280_pressure;Samples;Min_cycle;Max_cycle;Signal;HPM_P1;HPM_P2
2022/05/24 00:01:15;;;;;;;6.15;3.10;;;;;;;;;;4991203;28;20064;-78
2022/05/24 00:03:41;;;;;;;3.47;2.78;;;;;;;;;;4996838;28;20057;-78
2022/05/24 00:06:07;;;;;;;3.40;3.08;;;;;;;;;;5000720;28;20092;-78
2022/05/24 00:08:34;;;;;;;4.20;3.25;;;;;;;;;;4998075;28;20054;-76
2022/05/24 00:11:00;;;;;;;6.15;3.30;;;;;;;;;;4990345;28;20474;-78
2022/05/24 00:13:26;;;;;;;4.05;3.22;;;;;;;;;;4992726;28;20046;-78
2022/05/24 00:15:52;;;;;;;4.35;3.10;;;;;;;;;;4989161;28;20193;-78
2022/05/24 00:18:23;;;;;;;5.05;3.30;;;;;;;;;;4989345;28;20081;-78
2022/05/24 00:20:51;;;;;;;4.28;3.08;;;;;;;;;;5001286;28;20049;-78
2022/05/24 00:23:19;;;;;;;4.38;3.13;;;;;;;;;;4989929;28;20042;-78
2022/05/24 00:25:47;;;;;;;5.40;3.20;;;;;;;;;;4990133;28;20405;-78
2022/05/24 00:28:13;;;;;;;4.00;3.05;;;;;;;;;;4994497;28;20057;-79
2022/05/24 00:30:40;;;;;;;5.45;3.20;;;;;;;;;;4995417;28;20041;-78
2022/05/24 00:33:06;;;;;;;2.90;2.70;;;;;;;;;;4990105;28;20102;-79
2022/05/24 00:35:32;;;;;;;3.60;3.05;;;;;;;;;;4991011;28;20043;-79
2022/05/24 00:37:58;;;;;;;4.70;3.25;;;;;;;;;;4991997;28;20046;-78
2022/05/24 00:40:43;;;;;;;3.65;3.08;;;;;;;;;;4995106;28;21625;-79
2022/05/24 00:43:14;;;;;;;3.97;3.08;;;;;;;;;;4995871;28;20077;-78
2022/05/24 00:45:44;;;;;;;3.67;3.30;;;;;;;;;;4994846;28;20124;-78
2022/05/24 00:48:22;;;;;;;4.13;2.70;;;;;;;;;;4993824;28;20050;-79
2022/05/24 00:50:51;;;;;;;4.13;3.38;;;;;;;;;;4987016;28;20041;-78
2022/05/24 00:53:20;;;;;;;4.85;3.60;;;;;;;;;;4992502;28;20074;-79
2022/05/24 00:55:50;;;;;;;4.05;3.42;;;;;;;;;;5003323;28;20046;-78
2022/05/24 00:58:37;;;;;;;4.80;4.13;;;;;;;;;;4987486;28;20046;-79
2022/05/24 01:01:07;;;;;;;6.20;4.80;;;;;;;;;;4986721;28;20137;-78
2022/05/24 01:03:33;;;;;;;7.15;4.53;;;;;;;;;;4991626;28;20042;-78
2022/05/24 01:06:02;;;;;;;6.55;5.18;;;;;;;;;;4997843;28;20050;-79
2022/05/24 01:08:28;;;;;;;5.88;5.00;;;;;;;;;;4991294;28;20115;-78
2022/05/24 01:11:02;;;;;;;7.10;5.63;;;;;;;;;;5002523;28;20046;-79
2022/05/24 01:13:30;;;;;;;6.60;5.70;;;;;;;;;;4996192;28;20148;-79
2022/05/24 01:15:56;;;;;;;6.78;5.30;;;;;;;;;;4992981;28;20485;-78
2022/05/24 01:18:24;;;;;;;5.60;4.53;;;;;;;;;;4997082;28;20046;-78
2022/05/24 01:20:53;;;;;;;7.47;5.80;;;;;;;;;;4996710;28;20104;-78
2022/05/24 01:23:22;;;;;;;9.05;6.85;;;;;;;;;;4985217;28;20108;-78
2022/05/24 01:25:56;;;;;;;8.43;6.95;;;;;;;;;;4994513;28;20489;-78
2022/05/24 01:28:25;;;;;;;6.85;5.72;;;;;;;;;;4989087;28;20058;-78
2022/05/24 01:30:54;;;;;;;6.55;5.32;;;;;;;;;;4990885;28;20038;-78
2022/05/24 01:36:10;;;;;;;6.80;5.72;;;;;;;;;;4990425;28;20050;-78
2022/05/24 01:38:37;;;;;;;7.78;6.65;;;;;;;;;;4994261;28;20038;-78
2022/05/24 01:41:03;;;;;;;10.73;8.55;;;;;;;;;;4996688;28;20045;-78
2022/05/24 01:43:30;;;;;;;11.13;9.40;;;;;;;;;;4991446;28;20116;-78
2022/05/24 01:45:59;;;;;;;12.82;10.73;;;;;;;;;;4992065;28;20490;-79
2022/05/24 01:48:37;;;;;;;12.27;10.70;;;;;;;;;;4997266;28;20046;-79
2022/05/24 01:51:05;;;;;;;12.43;11.02;;;;;;;;;;4997376;28;20081;-79
2022/05/24 01:53:38;;;;;;;12.45;11.18;;;;;;;;;;5000474;28;20585;-78
2022/05/24 01:56:04;;;;;;;;;;;;;;;;;;5002368;28;20054;-79
2022/05/24 01:58:32;;;;;;;12.35;11.05;;;;;;;;;;5001364;28;20444;-79
2022/05/24 02:01:06;;;;;;;11.98;10.73;;;;;;;;;;4992545;28;20049;-78
2022/05/24 02:03:32;;;;;;;10.60;9.25;;;;;;;;;;4993965;28;20046;-78
2022/05/24 02:05:59;;;;;;;10.40;9.30;;;;;;;;;;4994052;28;20049;-79
2022/05/24 02:08:25;;;;;;;9.57;8.57;;;;;;;;;;4992694;28;21644;-79
2022/05/24 02:10:51;;;;;;;9.60;8.48;;;;;;;;;;4999440;28;20035;-78
2022/05/24 02:13:25;;;;;;;13.25;11.85;;;;;;;;;;4991058;28;20048;-79
2022/05/24 02:15:53;;;;;;;11.48;8.20;;;;;;;;;;5004018;28;20042;-78
2022/05/24 02:18:21;;;;;;;9.10;8.20;;;;;;;;;;5005379;28;20053;-79
2022/05/24 02:20:47;;;;;;;7.30;6.38;;;;;;;;;;5001966;28;20041;-78
2022/05/24 02:23:15;;;;;;;6.32;5.20;;;;;;;;;;4999374;28;20046;-79
2022/05/24 02:25:44;;;;;;;6.20;5.20;;;;;;;;;;5002743;28;20390;-78
2022/05/24 02:28:11;;;;;;;7.55;5.43;;;;;;;;;;4999918;28;20426;-78
2022/05/24 02:30:41;;;;;;;7.47;5.40;;;;;;;;;;4996923;28;20074;-78
2022/05/24 02:33:07;;;;;;;6.50;5.40;;;;;;;;;;4999321;28;20065;-79
2022/05/24 02:35:33;;;;;;;7.65;5.25;;;;;;;;;;4998179;28;20042;-79
2022/05/24 02:38:00;;;;;;;5.93;5.30;;;;;;;;;;5000831;28;20041;-78
2022/05/24 02:43:16;;;;;;;9.55;6.47;;;;;;;;;;4993008;28;20089;-78
2022/05/24 02:45:52;;;;;;;7.95;5.07;;;;;;;;;;5001628;28;20054;-78
2022/05/24 02:48:18;;;;;;;6.32;5.00;;;;;;;;;;4998789;28;20037;-79
2022/05/24 02:50:44;;;;;;;6.07;4.63;;;;;;;;;;4999906;28;20046;-79
2022/05/24 02:53:10;;;;;;;7.65;5.38;;;;;;;;;;4996955;28;20050;-79
2022/05/24 02:55:37;;;;;;;7.82;5.68;;;;;;;;;;4998652;28;20446;-78
2022/05/24 02:58:03;;;;;;;8.20;6.05;;;;;;;;;;5000905;28;20058;-79
2022/05/24 03:00:30;;;;;;;10.50;6.05;;;;;;;;;;5000930;28;20105;-79
2022/05/24 03:02:56;;;;;;;8.23;6.13;;;;;;;;;;4987388;28;20053;-79
2022/05/24 03:05:22;;;;;;;10.07;6.40;;;;;;;;;;4992513;28;20386;-78
2022/05/24 03:10:34;;;;;;;6.63;4.55;;;;;;;;;;5031814;28;20057;-78
2022/05/24 03:15:45;;;;;;;7.60;4.03;;;;;;;;;;5006375;28;20058;-78
2022/05/24 03:18:13;;;;;;;5.82;3.70;;;;;;;;;;4992274;28;20088;-78
2022/05/24 03:20:39;;;;;;;8.70;3.80;;;;;;;;;;5003897;28;20362;-77
2022/05/24 03:23:05;;;;;;;7.47;3.90;;;;;;;;;;4997571;28;20046;-78
2022/05/24 03:25:32;;;;;;;5.72;3.70;;;;;;;;;;5001700;28;20035;-77
2022/05/24 03:27:59;;;;;;;7.03;3.53;;;;;;;;;;5001233;28;20038;-78
2022/05/24 03:30:25;;;;;;;5.47;3.03;;;;;;;;;;4996451;28;20172;-78
2022/05/24 03:32:51;;;;;;;6.68;3.53;;;;;;;;;;5000265;28;20172;-79
2022/05/24 03:35:17;;;;;;;4.68;3.25;;;;;;;;;;4999583;28;20050;-78
2022/05/24 03:37:43;;;;;;;6.40;3.45;;;;;;;;;;4993131;28;20046;-78
2022/05/24 03:40:10;;;;;;;5.88;3.22;;;;;;;;;;4999866;28;20045;-79
2022/05/24 03:42:37;;;;;;;4.60;2.90;;;;;;;;;;5002095;28;20503;-80
2022/05/24 03:45:04;;;;;;;5.53;3.17;;;;;;;;;;5002060;28;20144;-80
2022/05/24 03:47:30;;;;;;;6.30;3.00;;;;;;;;;;4998699;28;20034;-80
2022/05/24 03:49:56;;;;;;;5.40;2.75;;;;;;;;;;5004728;28;20042;-80
2022/05/24 03:52:22;;;;;;;4.60;2.88;;;;;;;;;;4996460;28;20081;-80
2022/05/24 03:54:48;;;;;;;5.95;3.08;;;;;;;;;;4991654;28;20046;-79
2022/05/24 03:59:59;;;;;;;4.85;3.50;;;;;;;;;;5003418;28;20038;-80
2022/05/24 04:02:25;;;;;;;6.38;4.38;;;;;;;;;;4986166;28;20083;-80
2022/05/24 04:04:51;;;;;;;7.22;4.38;;;;;;;;;;5000688;28;20081;-80
2022/05/24 04:07:17;;;;;;;6.10;4.82;;;;;;;;;;5004024;28;20582;-79
2022/05/24 04:09:43;;;;;;;7.65;5.03;;;;;;;;;;4988263;28;20049;-79
2022/05/24 04:12:09;;;;;;;6.47;4.90;;;;;;;;;;5002412;28;20045;-79
2022/05/24 04:14:35;;;;;;;9.48;4.85;;;;;;;;;;4999772;28;20050;-78
2022/05/24 04:17:01;;;;;;;9.70;5.18;;;;;;;;;;5001856;28;20438;-79
2022/05/24 04:19:27;;;;;;;8.15;4.82;;;;;;;;;;4989134;28;20406;-79
2022/05/24 04:21:54;;;;;;;7.40;5.32;;;;;;;;;;4991889;28;20402;-78
2022/05/24 04:24:20;;;;;;;9.70;5.40;;;;;;;;;;4989780;28;20117;-79
2022/05/24 04:26:46;;;;;;;9.38;5.53;;;;;;;;;;4994348;28;20064;-79
2022/05/24 04:29:12;;;;;;;8.55;5.53;;;;;;;;;;5001938;28;20053;-78
2022/05/24 04:31:39;;;;;;;10.25;5.97;;;;;;;;;;4997176;28;20478;-78
2022/05/24 04:34:05;;;;;;;9.73;5.85;;;;;;;;;;4984385;28;20369;-78
2022/05/24 04:36:31;;;;;;;10.27;6.00;;;;;;;;;;4995526;28;20486;-79
2022/05/24 04:38:57;;;;;;;10.70;6.65;;;;;;;;;;4995523;28;20127;-78
2022/05/24 04:44:08;;;;;;;8.48;6.45;;;;;;;;;;4996168;28;20054;-78
2022/05/24 04:49:20;;;;;;;9.07;6.72;;;;;;;;;;4995736;28;20054;-80
2022/05/24 04:51:46;;;;;;;9.25;6.22;;;;;;;;;;4999866;28;20046;-79
2022/05/24 04:54:12;;;;;;;11.50;7.15;;;;;;;;;;4995840;28;20045;-78
2022/05/24 04:56:38;;;;;;;12.40;6.88;;;;;;;;;;4996864;28;20046;-79
2022/05/24 04:59:04;;;;;;;10.00;7.15;;;;;;;;;;4999658;28;20054;-79
2022/05/24 05:01:30;;;;;;;11.05;6.95;;;;;;;;;;4991141;28;20041;-79
2022/05/24 05:03:56;;;;;;;15.07;7.43;;;;;;;;;;5000025;28;20424;-79
2022/05/24 05:06:22;;;;;;;12.48;6.68;;;;;;;;;;4997701;28;20038;-79
2022/05/24 05:08:48;;;;;;;12.32;6.80;;;;;;;;;;4996267;28;20042;-79
2022/05/24 05:11:14;;;;;;;15.23;8.30;;;;;;;;;;4985752;28;20108;-78
2022/05/24 05:13:41;;;;;;;14.90;7.10;;;;;;;;;;5001599;28;20054;-78
2022/05/24 05:16:07;;;;;;;10.70;7.57;;;;;;;;;;4996516;28;20097;-78
2022/05/24 05:18:33;;;;;;;12.50;5.72;;;;;;;;;;4999386;28;20042;-79
2022/05/24 05:21:00;;;;;;;11.38;5.93;;;;;;;;;;5000930;28;20042;-78
2022/05/24 05:23:29;;;;;;;11.05;4.65;;;;;;;;;;4996823;28;20061;-79
2022/05/24 05:25:55;;;;;;;11.52;4.45;;;;;;;;;;4990928;28;20058;-79
2022/05/24 05:28:21;;;;;;;12.63;4.20;;;;;;;;;;4993514;28;20064;-79
2022/05/24 05:33:33;;;;;;;8.38;3.25;;;;;;;;;;4994345;28;20055;-79
2022/05/24 05:36:03;;;;;;;7.20;3.20;;;;;;;;;;4997788;28;20141;-79
2022/05/24 05:38:31;;;;;;;4.63;2.60;;;;;;;;;;5000140;28;20072;-80
2022/05/24 05:40:58;;;;;;;5.38;2.72;;;;;;;;;;4993946;28;20486;-80
2022/05/24 05:43:24;;;;;;;7.65;3.15;;;;;;;;;;4994970;28;20095;-80
2022/05/24 05:45:54;;;;;;;5.47;2.60;;;;;;;;;;4990636;28;20076;-80
2022/05/24 05:48:20;;;;;;;4.82;2.40;;;;;;;;;;4997955;28;20371;-80
2022/05/24 05:50:47;;;;;;;4.97;2.35;;;;;;;;;;4999564;28;20494;-80
2022/05/24 05:53:13;;;;;;;5.68;2.22;;;;;;;;;;4983010;28;20801;-79
2022/05/24 05:55:41;;;;;;;5.20;2.13;;;;;;;;;;4987106;28;20065;-80
2022/05/24 05:58:07;;;;;;;4.25;2.22;;;;;;;;;;4997694;28;20089;-80
2022/05/24 06:00:33;;;;;;;4.05;2.25;;;;;;;;;;4999044;28;20141;-79
2022/05/24 06:03:00;;;;;;;4.78;2.20;;;;;;;;;;4998921;28;20045;-80
2022/05/24 06:05:26;;;;;;;3.03;2.13;;;;;;;;;;4980237;28;20053;-80
2022/05/24 06:07:52;;;;;;;5.82;2.30;;;;;;;;;;4995739;28;20053;-80
2022/05/24 06:10:18;;;;;;;6.80;2.63;;;;;;;;;;5002391;28;20053;-80
2022/05/24 06:12:44;;;;;;;5.57;2.63;;;;;;;;;;5005636;28;20409;-80
2022/05/24 06:15:10;;;;;;;5.93;2.75;;;;;;;;;;4989855;28;20082;-81
2022/05/24 06:17:44;;;;;;;4.82;2.67;;;;;;;;;;4998199;28;20050;-80
2022/05/24 06:20:10;;;;;;;5.10;2.80;;;;;;;;;;4998339;28;20120;-80
2022/05/24 06:22:36;;;;;;;6.45;3.42;;;;;;;;;;4994565;28;20495;-80
2022/05/24 06:25:02;;;;;;;6.85;3.33;;;;;;;;;;4997758;28;20077;-80
2022/05/24 06:27:28;;;;;;;5.90;3.55;;;;;;;;;;4995566;28;20054;-80
2022/05/24 06:29:54;;;;;;;6.72;3.42;;;;;;;;;;4995105;28;20555;-81
2022/05/24 06:32:20;;;;;;;6.93;3.10;;;;;;;;;;4992885;28;20459;-80
2022/05/24 06:34:48;;;;;;;5.63;3.35;;;;;;;;;;4994577;28;20089;-80
2022/05/24 06:37:15;;;;;;;9.43;3.28;;;;;;;;;;4978546;28;20074;-81
2022/05/24 06:39:41;;;;;;;6.20;3.10;;;;;;;;;;4995454;28;20475;-80
2022/05/24 06:42:07;;;;;;;8.40;3.13;;;;;;;;;;4997085;28;20050;-81
2022/05/24 06:44:33;;;;;;;5.18;2.90;;;;;;;;;;4998086;28;20043;-81
2022/05/24 06:47:00;;;;;;;6.07;3.25;;;;;;;;;;5003458;28;20516;-81
2022/05/24 06:49:26;;;;;;;7.57;3.25;;;;;;;;;;4991562;28;20065;-81
2022/05/24 06:51:52;;;;;;;7.43;3.47;;;;;;;;;;4993275;28;20053;-81
2022/05/24 06:54:18;;;;;;;6.05;2.90;;;;;;;;;;4991195;28;20050;-80
2022/05/24 06:56:44;;;;;;;4.68;2.80;;;;;;;;;;4998169;28;20060;-81
2022/05/24 07:04:40;;;;;;;3.42;2.70;;;;;;;;;;4994511;28;20049;-81
2022/05/24 07:07:06;;;;;;;4.53;2.97;;;;;;;;;;5003770;28;20057;-82
2022/05/24 07:09:40;;;;;;;4.13;2.60;;;;;;;;;;4995600;28;20483;-81
2022/05/24 07:12:06;;;;;;;3.60;2.45;;;;;;;;;;4993215;28;20093;-81
2022/05/24 07:14:35;;;;;;;6.78;2.85;;;;;;;;;;5000125;28;20047;-81
2022/05/24 07:17:01;;;;;;;3.22;2.58;;;;;;;;;;4993599;28;20120;-81
2022/05/24 07:19:28;;;;;;;3.60;2.72;;;;;;;;;;4993460;28;20178;-81
2022/05/24 07:21:54;;;;;;;6.05;3.00;;;;;;;;;;4992860;28;20045;-81
2022/05/24 07:24:20;;;;;;;6.55;2.80;;;;;;;;;;4988320;28;20498;-82
2022/05/24 07:26:46;;;;;;;6.63;3.17;;;;;;;;;;4995754;28;20434;-83
2022/05/24 07:29:13;;;;;;;5.65;2.70;;;;;;;;;;4988801;28;20074;-81
2022/05/24 07:31:41;;;;;;;6.65;3.10;;;;;;;;;;4999649;28;20421;-81
2022/05/24 07:34:07;;;;;;;3.95;2.75;;;;;;;;;;4999815;28;20517;-81
2022/05/24 07:36:33;;;;;;;4.43;2.63;;;;;;;;;;4994223;28;20035;-80
2022/05/24 07:39:00;;;;;;;3.78;2.70;;;;;;;;;;5006127;28;20046;-81
2022/05/24 07:46:56;;;;;;;4.05;3.13;;;;;;;;;;4994656;28;20568;-82
2022/05/24 07:49:22;;;;;;;5.65;3.13;;;;;;;;;;4996329;28;20053;-82
2022/05/24 07:51:49;;;;;;;4.85;2.97;;;;;;;;;;5003030;28;20038;-82
2022/05/24 07:54:15;;;;;;;6.63;3.65;;;;;;;;;;4988501;28;20487;-81
2022/05/24 07:56:44;;;;;;;5.80;3.15;;;;;;;;;;5001428;28;20054;-81
2022/05/24 07:59:10;;;;;;;4.32;3.13;;;;;;;;;;4999579;28;20050;-81
2022/05/24 08:01:36;;;;;;;5.15;3.20;;;;;;;;;;4993381;28;20181;-82
2022/05/24 08:04:03;;;;;;;5.13;3.60;;;;;;;;;;5002990;28;20056;-81
2022/05/24 08:06:29;;;;;;;4.57;3.13;;;;;;;;;;4986103;28;20050;-80
2022/05/24 08:08:55;;;;;;;4.45;2.92;;;;;;;;;;5001085;28;20054;-81
2022/05/24 08:11:21;;;;;;;4.47;3.38;;;;;;;;;;4998951;28;20060;-81
2022/05/24 08:13:47;;;;;;;5.95;3.17;;;;;;;;;;4989990;28;20053;-82
2022/05/24 08:16:13;;;;;;;5.30;3.30;;;;;;;;;;5000687;28;20088;-82
2022/05/24 08:18:39;;;;;;;6.20;2.85;;;;;;;;;;4991879;28;20058;-80
2022/05/24 08:21:05;;;;;;;5.07;3.00;;;;;;;;;;4996981;28;20049;-80
2022/05/24 08:23:32;;;;;;;4.35;2.95;;;;;;;;;;4997474;28;20483;-81
2022/05/24 08:25:58;;;;;;;3.95;2.60;;;;;;;;;;4996644;28;20508;-80
2022/05/24 08:28:25;;;;;;;4.82;2.75;;;;;;;;;;4995201;28;20053;-82
2022/05/24 08:30:53;;;;;;;5.00;2.85;;;;;;;;;;5002080;28;20073;-81
2022/05/24 08:33:21;;;;;;;5.68;2.70;;;;;;;;;;4991647;28;20049;-82
2022/05/24 08:35:47;;;;;;;4.82;2.90;;;;;;;;;;4998228;28;20041;-79
2022/05/24 08:38:13;;;;;;;3.08;2.60;;;;;;;;;;4989762;28;20065;-81
2022/05/24 08:40:41;;;;;;;4.72;2.90;;;;;;;;;;4993062;28;20061;-81
2022/05/24 08:43:19;;;;;;;6.85;3.40;;;;;;;;;;4997652;28;20041;-80
2022/05/24 08:48:47;;;;;;;5.38;3.28;;;;;;;;;;4988173;28;20121;-81
2022/05/24 08:51:16;;;;;;;4.43;3.00;;;;;;;;;;4997395;28;20061;-82
2022/05/24 08:53:45;;;;;;;4.50;3.08;;;;;;;;;;5000858;28;20038;-81
2022/05/24 08:56:15;;;;;;;3.88;3.10;;;;;;;;;;4998857;28;20057;-81
2022/05/24 08:58:47;;;;;;;6.65;3.17;;;;;;;;;;5000616;28;20489;-82
2022/05/24 09:01:15;;;;;;;4.15;2.80;;;;;;;;;;4992207;28;20046;-81
2022/05/24 09:03:41;;;;;;;5.63;2.70;;;;;;;;;;4988188;28;20255;-82
2022/05/24 09:06:13;;;;;;;4.10;2.90;;;;;;;;;;5004020;28;20132;-81
2022/05/24 09:08:45;;;;;;;5.75;3.10;;;;;;;;;;5004107;28;20046;-81
2022/05/24 09:11:13;;;;;;;3.25;2.92;;;;;;;;;;5003978;28;20054;-81
2022/05/24 09:14:01;;;;;;;4.82;3.00;;;;;;;;;;5004403;28;20085;-81
2022/05/24 09:16:34;;;;;;;4.28;3.00;;;;;;;;;;4994517;28;20047;-81
2022/05/24 09:19:19;;;;;;;4.18;2.90;;;;;;;;;;4994984;28;20054;-81
2022/05/24 09:21:52;;;;;;;4.15;2.45;;;;;;;;;;4996644;28;20077;-82
2022/05/24 09:24:27;;;;;;;4.53;2.40;;;;;;;;;;4996346;28;20054;-80
2022/05/24 09:27:02;;;;;;;6.00;2.70;;;;;;;;;;4988441;28;20319;-81
2022/05/24 09:29:28;;;;;;;6.40;2.72;;;;;;;;;;4999894;28;20058;-81
2022/05/24 09:31:56;;;;;;;5.50;3.20;;;;;;;;;;5004012;28;20099;-81
2022/05/24 09:34:22;;;;;;;8.55;3.60;;;;;;;;;;4997078;28;20045;-80
2022/05/24 09:36:54;;;;;;;5.57;3.55;;;;;;;;;;4995851;28;20386;-82
2022/05/24 09:39:32;;;;;;;6.53;4.05;;;;;;;;;;5000045;28;20539;-82
2022/05/24 09:42:15;;;;;;;5.78;4.50;;;;;;;;;;4982538;28;20046;-81
2022/05/24 09:44:52;;;;;;;5.97;4.55;;;;;;;;;;4996392;28;20042;-82
2022/05/24 09:47:21;;;;;;;5.40;4.63;;;;;;;;;;4995806;28;20049;-81
2022/05/24 09:49:48;;;;;;;6.18;4.78;;;;;;;;;;4993088;28;20389;-82
2022/05/24 09:52:15;;;;;;;6.88;5.45;;;;;;;;;;5002218;28;20046;-82
2022/05/24 09:54:58;;;;;;;3.85;3.13;;;;;;;;;;4997566;28;20065;-82
2022/05/24 09:57:29;;;;;;;2.40;2.22;;;;;;;;;;4999904;28;20065;-82
2022/05/24 10:00:07;;;;;;;1.58;1.48;;;;;;;;;;4998683;28;20046;-84
2022/05/24 10:02:34;;;;;;;1.45;1.35;;;;;;;;;;4989922;28;20035;-81
2022/05/24 10:05:03;;;;;;;3.65;1.40;;;;;;;;;;5003473;28;20042;-82
2022/05/24 10:07:33;;;;;;;1.40;1.30;;;;;;;;;;4994989;28;20062;-82
2022/05/24 10:10:06;;;;;;;1.83;1.40;;;;;;;;;;5005036;28;20038;-83
2022/05/24 10:12:35;;;;;;;4.50;1.88;;;;;;;;;;5001292;28;20082;-81
2022/05/24 10:15:09;;;;;;;2.22;1.75;;;;;;;;;;5005266;28;20050;-84
2022/05/24 10:17:43;;;;;;;3.50;2.00;;;;;;;;;;4993274;28;20043;-83
2022/05/24 10:20:27;;;;;;;2.15;2.05;;;;;;;;;;5002389;28;20048;-81
2022/05/24 10:23:05;;;;;;;3.00;2.00;;;;;;;;;;5000949;28;20050;-82
2022/05/24 10:25:34;;;;;;;6.90;2.30;;;;;;;;;;4991013;28;20414;-81
2022/05/24 10:28:00;;;;;;;2.63;1.95;;;;;;;;;;5003263;28;20064;-83
2022/05/24 10:30:49;;;;;;;3.95;2.08;;;;;;;;;;5000476;28;20039;-82
2022/05/24 10:38:56;;;;;;;2.97;1.80;;;;;;;;;;4992402;28;20057;-81
2022/05/24 10:41:26;;;;;;;3.67;1.70;;;;;;;;;;4991237;28;20095;-80
2022/05/24 10:44:13;;;;;;;3.38;1.92;;;;;;;;;;5004321;28;20137;-81
2022/05/24 10:46:43;;;;;;;4.55;1.95;;;;;;;;;;4997175;28;20850;-81
2022/05/24 10:49:14;;;;;;;2.92;1.92;;;;;;;;;;5003055;28;20054;-81
2022/05/24 10:51:48;;;;;;;2.42;1.80;;;;;;;;;;4994556;28;20122;-81
2022/05/24 10:54:24;;;;;;;4.75;2.03;;;;;;;;;;4992794;28;20490;-80
2022/05/24 10:56:53;;;;;;;3.50;1.80;;;;;;;;;;4994044;28;20038;-81
2022/05/24 10:59:23;;;;;;;7.82;2.13;;;;;;;;;;4987808;28;20053;-81
2022/05/24 11:01:56;;;;;;;3.80;2.10;;;;;;;;;;4985678;28;20097;-80
2022/05/24 11:04:25;;;;;;;5.00;2.25;;;;;;;;;;4993494;28;20452;-81
2022/05/24 11:06:58;;;;;;;3.10;1.88;;;;;;;;;;4997595;28;20042;-80
2022/05/24 11:09:25;;;;;;;5.63;1.90;;;;;;;;;;4997218;28;20156;-80
2022/05/24 11:12:04;;;;;;;6.03;2.08;;;;;;;;;;4995429;28;20042;-80
2022/05/24 11:14:47;;;;;;;4.80;2.00;;;;;;;;;;4996716;28;20043;-80
2022/05/24 11:17:14;;;;;;;2.67;1.83;;;;;;;;;;4991626;28;20082;-81
2022/05/24 11:19:44;;;;;;;4.03;2.00;;;;;;;;;;4988409;28;20050;-81
2022/05/24 11:22:18;;;;;;;4.03;1.88;;;;;;;;;;4997751;28;20081;-81
2022/05/24 11:24:44;;;;;;;3.97;2.00;;;;;;;;;;5002659;28;20049;-81
2022/05/24 11:27:14;;;;;;;5.80;1.88;;;;;;;;;;4992903;28;20058;-82
2022/05/24 11:29:52;;;;;;;4.80;2.10;;;;;;;;;;5003311;28;20057;-82
2022/05/24 11:32:35;;;;;;;4.22;1.92;;;;;;;;;;4987230;28;20502;-80
2022/05/24 11:35:06;;;;;;;4.53;2.03;;;;;;;;;;4996093;28;20045;-81
2022/05/24 11:37:37;;;;;;;9.15;2.05;;;;;;;;;;4991189;28;20050;-80
2022/05/24 11:40:22;;;;;;;4.00;1.58;;;;;;;;;;5003694;28;20046;-80
2022/05/24 11:42:51;;;;;;;4.93;1.60;;;;;;;;;;4994718;28;20045;-81
2022/05/24 11:45:29;;;;;;;6.28;1.95;;;;;;;;;;4999498;28;20077;-80
2022/05/24 11:48:15;;;;;;;6.10;1.95;;;;;;;;;;4994889;28;20100;-81
2022/05/24 11:50:43;;;;;;;8.63;2.20;;;;;;;;;;4989641;28;20394;-80
2022/05/24 11:53:19;;;;;;;8.00;2.10;;;;;;;;;;4994222;28;20042;-81
2022/05/24 11:55:54;;;;;;;4.82;1.90;;;;;;;;;;4996281;28;20394;-81
2022/05/24 11:58:20;;;;;;;3.08;1.98;;;;;;;;;;4996483;28;20474;-81
2022/05/24 12:01:00;;;;;;;4.93;1.90;;;;;;;;;;4997804;28;20034;-80
2022/05/24 12:09:17;;;;;;;3.10;2.10;;;;;;;;;;4992432;28;20050;-82
2022/05/24 12:11:43;;;;;;;6.93;2.72;;;;;;;;;;5000489;28;20177;-81
2022/05/24 12:14:17;;;;;;;9.15;2.70;;;;;;;;;;4995845;28;20072;-80
2022/05/24 12:17:01;;;;;;;5.47;2.28;;;;;;;;;;4999978;28;20576;-81
2022/05/24 12:19:42;;;;;;;3.95;2.40;;;;;;;;;;4997817;28;20158;-81
2022/05/24 12:22:11;;;;;;;6.60;2.45;;;;;;;;;;4983758;28;20070;-82
2022/05/24 12:24:37;;;;;;;5.80;2.50;;;;;;;;;;5000515;28;20581;-81
2022/05/24 12:27:18;;;;;;;11.18;2.67;;;;;;;;;;5000743;28;20137;-82
2022/05/24 12:29:46;;;;;;;8.32;2.88;;;;;;;;;;5000994;28;20057;-82
2022/05/24 12:32:15;;;;;;;5.43;2.30;;;;;;;;;;4999422;28;20556;-82
2022/05/24 12:34:41;;;;;;;6.47;3.20;;;;;;;;;;4994359;28;20050;-81
2022/05/24 12:37:16;;;;;;;10.23;3.20;;;;;;;;;;5018282;28;20074;-81
2022/05/24 12:40:02;;;;;;;8.88;2.80;;;;;;;;;;4999339;28;20046;-81
2022/05/24 12:42:28;;;;;;;4.50;2.30;;;;;;;;;;4991101;28;20042;-80
2022/05/24 12:44:54;;;;;;;7.93;2.65;;;;;;;;;;4993973;28;20052;-81
2022/05/24 12:47:21;;;;;;;5.70;2.67;;;;;;;;;;4991514;28;20125;-81
2022/05/24 12:49:47;;;;;;;9.35;2.80;;;;;;;;;;4998889;28;20068;-81
2022/05/24 12:52:20;;;;;;;7.30;2.80;;;;;;;;;;4996725;28;20494;-81
2022/05/24 12:54:50;;;;;;;9.80;2.70;;;;;;;;;;5002120;28;20060;-81
2022/05/24 12:57:22;;;;;;;6.03;2.35;;;;;;;;;;4998797;28;20068;-83
2022/05/24 13:00:07;;;;;;;9.13;2.75;;;;;;;;;;4990895;28;20046;-81
2022/05/24 13:02:41;;;;;;;5.82;2.80;;;;;;;;;;4988436;28;20050;-81
2022/05/24 13:05:07;;;;;;;7.60;2.50;;;;;;;;;;4999122;28;20100;-82
2022/05/24 13:07:46;;;;;;;4.40;2.35;;;;;;;;;;4993905;28;20415;-81
2022/05/24 13:10:15;;;;;;;10.25;2.25;;;;;;;;;;4991354;28;20057;-81
2022/05/24 13:12:41;;;;;;;11.40;2.40;;;;;;;;;;4997927;28;20085;-82
2022/05/24 13:15:09;;;;;;;6.15;2.33;;;;;;;;;;4993632;28;20055;-81
2022/05/24 13:17:43;;;;;;;2.80;2.17;;;;;;;;;;4995400;28;20092;-81
2022/05/24 13:20:11;;;;;;;7.28;2.17;;;;;;;;;;4990888;28;20053;-80
2022/05/24 13:22:45;;;;;;;3.75;2.10;;;;;;;;;;4997428;28;20428;-81
2022/05/24 13:25:17;;;;;;;4.38;2.47;;;;;;;;;;4992652;28;20140;-80
2022/05/24 13:27:52;;;;;;;3.42;2.40;;;;;;;;;;5000657;28;20050;-81
2022/05/24 13:35:50;;;;;;;4.95;2.60;;;;;;;;;;4984866;28;20133;-81
2022/05/24 13:38:21;;;;;;;6.35;2.97;;;;;;;;;;4996344;28;20050;-81
2022/05/24 13:40:52;;;;;;;9.15;3.33;;;;;;;;;;4978640;28;20501;-81
2022/05/24 13:43:51;;;;;;;6.05;3.33;;;;;;;;;;4993524;28;20050;-81
2022/05/24 13:46:21;;;;;;;5.90;3.40;;;;;;;;;;4971355;28;20502;-80
2022/05/24 13:48:57;;;;;;;3.80;3.45;;;;;;;;;;4993996;28;20084;-81
2022/05/24 13:51:28;;;;;;;3.70;3.08;;;;;;;;;;4999313;28;20402;-81
2022/05/24 13:53:55;;;;;;;7.03;3.35;;;;;;;;;;5003982;28;20038;-80
2022/05/24 13:56:26;;;;;;;5.07;3.30;;;;;;;;;;5000138;28;20141;-81
2022/05/24 13:59:04;;;;;;;3.60;3.13;;;;;;;;;;4993953;28;20060;-81
2022/05/24 14:01:33;;;;;;;7.03;3.80;;;;;;;;;;4992809;28;20129;-81
2022/05/24 14:04:00;;;;;;;5.57;3.50;;;;;;;;;;4999409;28;20042;-81
2022/05/24 14:06:29;;;;;;;5.68;3.97;;;;;;;;;;4992843;28;20050;-81
2022/05/24 14:08:56;;;;;;;13.63;4.00;;;;;;;;;;5002200;28;20409;-81
2022/05/24 14:11:24;;;;;;;7.10;3.63;;;;;;;;;;4985793;28;20379;-81
2022/05/24 14:13:51;;;;;;;5.18;3.45;;;;;;;;;;4994181;28;20046;-81
2022/05/24 14:16:18;;;;;;;5.20;2.83;;;;;;;;;;4997673;28;20089;-82
2022/05/24 14:18:44;;;;;;;6.55;3.22;;;;;;;;;;5003342;28;20073;-81
2022/05/24 14:21:13;;;;;;;6.28;3.60;;;;;;;;;;5002440;28;20542;-81
2022/05/24 14:23:39;;;;;;;7.90;3.60;;;;;;;;;;4996228;28;20051;-80
2022/05/24 14:26:06;;;;;;;8.18;3.83;;;;;;;;;;5003971;28;20054;-81
2022/05/24 14:28:33;;;;;;;8.13;4.00;;;;;;;;;;5000334;28;20046;-80
2022/05/24 14:30:59;;;;;;;4.63;3.90;;;;;;;;;;4999745;28;20046;-80
2022/05/24 14:33:26;;;;;;;5.38;3.28;;;;;;;;;;4994787;28;21868;-81
2022/05/24 14:35:52;;;;;;;6.07;3.25;;;;;;;;;;5002242;28;20119;-81
2022/05/24 14:38:18;;;;;;;5.85;3.60;;;;;;;;;;5000487;28;20044;-80
2022/05/24 14:40:48;;;;;;;5.13;3.25;;;;;;;;;;5004273;28;20046;-81
2022/05/24 14:43:33;;;;;;;6.78;3.40;;;;;;;;;;4987562;28;20054;-81
2022/05/24 14:46:00;;;;;;;5.47;3.05;;;;;;;;;;4995918;28;20398;-81
2022/05/24 14:48:26;;;;;;;6.65;3.22;;;;;;;;;;5000124;28;20117;-81
2022/05/24 14:50:52;;;;;;;3.33;3.00;;;;;;;;;;4999292;28;20053;-81
2022/05/24 14:53:19;;;;;;;4.18;3.78;;;;;;;;;;4998306;28;20046;-80
2022/05/24 14:55:46;;;;;;;8.60;4.30;;;;;;;;;;5000172;28;20050;-80
2022/05/24 14:58:12;;;;;;;10.00;3.72;;;;;;;;;;4997263;28;20058;-82
2022/05/24 15:00:38;;;;;;;5.97;3.05;;;;;;;;;;4993499;28;20050;-82
2022/05/24 15:03:04;;;;;;;3.40;2.80;;;;;;;;;;4999981;28;20108;-81
2022/05/24 15:05:30;;;;;;;5.22;3.25;;;;;;;;;;4998246;28;20092;-80
2022/05/24 15:16:22;;;;;;;5.20;1.90;;;;;;;;;;5023881;28;20058;-82
2022/05/24 15:18:48;;;;;;;4.00;1.95;;;;;;;;;;4987030;28;20508;-80
2022/05/24 15:21:16;;;;;;;2.67;1.90;;;;;;;;;;4981225;28;20050;-81
2022/05/24 15:23:42;;;;;;;2.88;1.92;;;;;;;;;;4999837;28;20081;-81
2022/05/24 15:26:11;;;;;;;2.63;1.70;;;;;;;;;;4998296;28;20062;-81
2022/05/24 15:28:39;;;;;;;2.60;1.90;;;;;;;;;;4998778;28;20062;-81
2022/05/24 15:31:05;;;;;;;3.50;1.90;;;;;;;;;;4994323;28;20149;-81
2022/05/24 15:33:31;;;;;;;2.53;1.90;;;;;;;;;;4990635;28;20459;-81
2022/05/24 15:35:57;;;;;;;2.92;1.90;;;;;;;;;;5000162;28;20414;-81
2022/05/24 15:38:23;;;;;;;2.15;1.60;;;;;;;;;;4990079;28;20060;-82
2022/05/24 15:40:49;;;;;;;1.77;1.67;;;;;;;;;;5005479;28;20057;-81
2022/05/24 15:43:15;;;;;;;4.63;1.55;;;;;;;;;;5000055;28;20562;-82
2022/05/24 15:45:43;;;;;;;4.13;2.10;;;;;;;;;;4991119;28;20049;-80
2022/05/24 15:48:09;;;;;;;2.92;1.90;;;;;;;;;;4992820;28;20116;-79
2022/05/24 15:50:36;;;;;;;4.00;2.00;;;;;;;;;;5010811;28;20061;-81
2022/05/24 15:53:02;;;;;;;2.63;1.92;;;;;;;;;;4982699;28;20042;-79